aviador You're here:

KEKX Decoded Metar

ELIZABETH in KY, USA
Report Time2017-09-20 20:15:00
UTC Time2017-09-20 20:13:01
Flight Rules vfr VFR
Wind160° at 03 kt
W.Decomp.*RWY 23: 1.2 kt HW 2.8 kt LCW
W.Rank160° ranks 15
Current wind is below 160° avg. (5.9)
Visibility9999 m
Phenomena:N/A
Clouds:Scattered 043 Hf
Expected CloudBase > 3,200 ft AGL from Temp-Dew spread
CeilingNone
Temp30°C (ISA +16)
Dew Point22°C (62% RH)
Heat Index33.2°C
QNH1016 hPa
Density Alt2,894 ft
Elevation755 ft
Report Wrong Elevation
Raw Report
KEKX 202015Z AUTO 16003KT 10SM SCT043 30/22 A3000 RMK AO2
T02960216=

Extra information for KEKX:More info

Airport Information Weather charts Add Link Nearby Venues Social comments

AIRNAV info for KEKX